sensor_id;sensor_type;location;lat;lon;timestamp;pressure;altitude;pressure_sealevel;temperature
18219;BMP180;9234;49.344;11.120;2023-06-14T00:02:02;97147.00;;;15.60
18219;BMP180;9234;49.344;11.120;2023-06-14T00:04:31;97144.00;;;15.60
18219;BMP180;9234;49.344;11.120;2023-06-14T00:07:00;97159.00;;;15.60
18219;BMP180;9234;49.344;11.120;2023-06-14T00:09:29;97156.00;;;15.60
18219;BMP180;9234;49.344;11.120;2023-06-14T00:11:58;97157.00;;;15.60
18219;BMP180;9234;49.344;11.120;2023-06-14T00:14:26;97156.00;;;15.60
18219;BMP180;9234;49.344;11.120;2023-06-14T00:16:55;97143.00;;;15.60
18219;BMP180;9234;49.344;11.120;2023-06-14T00:19:26;97136.00;;;15.60
18219;BMP180;9234;49.344;11.120;2023-06-14T00:21:54;97134.00;;;15.60
18219;BMP180;9234;49.344;11.120;2023-06-14T00:24:23;97137.00;;;15.60
18219;BMP180;9234;49.344;11.120;2023-06-14T00:26:52;97140.00;;;15.60
18219;BMP180;9234;49.344;11.120;2023-06-14T00:29:20;97132.00;;;15.50
18219;BMP180;9234;49.344;11.120;2023-06-14T00:31:48;97129.00;;;15.50
18219;BMP180;9234;49.344;11.120;2023-06-14T00:34:19;97131.00;;;15.40
18219;BMP180;9234;49.344;11.120;2023-06-14T00:36:48;97131.00;;;15.40
18219;BMP180;9234;49.344;11.120;2023-06-14T00:39:16;97130.00;;;15.30
18219;BMP180;9234;49.344;11.120;2023-06-14T00:41:44;97117.00;;;15.30
18219;BMP180;9234;49.344;11.120;2023-06-14T00:44:16;97121.00;;;15.30
18219;BMP180;9234;49.344;11.120;2023-06-14T00:46:45;97123.00;;;15.30
18219;BMP180;9234;49.344;11.120;2023-06-14T00:49:15;97123.00;;;15.30
18219;BMP180;9234;49.344;11.120;2023-06-14T00:51:47;97116.00;;;15.20
18219;BMP180;9234;49.344;11.120;2023-06-14T00:54:15;97116.00;;;15.20
18219;BMP180;9234;49.344;11.120;2023-06-14T00:56:44;97120.00;;;15.10
18219;BMP180;9234;49.344;11.120;2023-06-14T00:59:13;97111.00;;;15.10
18219;BMP180;9234;49.344;11.120;2023-06-14T01:01:42;97123.00;;;15.00
18219;BMP180;9234;49.344;11.120;2023-06-14T01:04:10;97124.00;;;14.90
18219;BMP180;9234;49.344;11.120;2023-06-14T01:06:52;97110.00;;;14.90
18219;BMP180;9234;49.344;11.120;2023-06-14T01:09:37;97114.00;;;14.80
18219;BMP180;9234;49.344;11.120;2023-06-14T01:12:16;97109.00;;;14.70
18219;BMP180;9234;49.344;11.120;2023-06-14T01:14:48;97120.00;;;14.70
18219;BMP180;9234;49.344;11.120;2023-06-14T01:17:19;97119.00;;;14.60
18219;BMP180;9234;49.344;11.120;2023-06-14T01:19:48;97114.00;;;14.50
18219;BMP180;9234;49.344;11.120;2023-06-14T01:22:21;97130.00;;;14.50
18219;BMP180;9234;49.344;11.120;2023-06-14T01:24:51;97121.00;;;14.40
18219;BMP180;9234;49.344;11.120;2023-06-14T01:27:23;97136.00;;;14.40
18219;BMP180;9234;49.344;11.120;2023-06-14T01:29:56;97130.00;;;14.30
18219;BMP180;9234;49.344;11.120;2023-06-14T01:32:25;97133.00;;;14.30
18219;BMP180;9234;49.344;11.120;2023-06-14T01:34:54;97125.00;;;14.30
18219;BMP180;9234;49.344;11.120;2023-06-14T01:37:23;97138.00;;;14.20
18219;BMP180;9234;49.344;11.120;2023-06-14T01:39:54;97141.00;;;14.10
18219;BMP180;9234;49.344;11.120;2023-06-14T01:42:23;97135.00;;;14.10
18219;BMP180;9234;49.344;11.120;2023-06-14T01:44:53;97132.00;;;14.00
18219;BMP180;9234;49.344;11.120;2023-06-14T01:47:22;97138.00;;;14.00
18219;BMP180;9234;49.344;11.120;2023-06-14T01:49:51;97138.00;;;13.90
18219;BMP180;9234;49.344;11.120;2023-06-14T01:52:19;97132.00;;;13.80
18219;BMP180;9234;49.344;11.120;2023-06-14T01:54:49;97128.00;;;13.80
18219;BMP180;9234;49.344;11.120;2023-06-14T01:57:19;97129.00;;;13.70
18219;BMP180;9234;49.344;11.120;2023-06-14T01:59:47;97128.00;;;13.70
18219;BMP180;9234;49.344;11.120;2023-06-14T02:02:16;97133.00;;;13.60
18219;BMP180;9234;49.344;11.120;2023-06-14T02:04:44;97130.00;;;13.50
18219;BMP180;9234;49.344;11.120;2023-06-14T02:07:14;97144.00;;;13.50
18219;BMP180;9234;49.344;11.120;2023-06-14T02:09:42;97138.00;;;13.40
18219;BMP180;9234;49.344;11.120;2023-06-14T02:12:11;97130.00;;;13.40
18219;BMP180;9234;49.344;11.120;2023-06-14T02:14:40;97129.00;;;13.30
18219;BMP180;9234;49.344;11.120;2023-06-14T02:17:10;97129.00;;;13.30
18219;BMP180;9234;49.344;11.120;2023-06-14T02:19:38;97135.00;;;13.20
18219;BMP180;9234;49.344;11.120;2023-06-14T02:22:07;97123.00;;;13.20
18219;BMP180;9234;49.344;11.120;2023-06-14T02:24:35;97141.00;;;13.10
18219;BMP180;9234;49.344;11.120;2023-06-14T02:27:08;97123.00;;;13.00
18219;BMP180;9234;49.344;11.120;2023-06-14T02:29:37;97123.00;;;13.00
18219;BMP180;9234;49.344;11.120;2023-06-14T02:32:07;97132.00;;;12.90
18219;BMP180;9234;49.344;11.120;2023-06-14T02:34:35;97129.00;;;12.90
18219;BMP180;9234;49.344;11.120;2023-06-14T02:37:07;97121.00;;;12.80
18219;BMP180;9234;49.344;11.120;2023-06-14T02:39:36;97127.00;;;12.80
18219;BMP180;9234;49.344;11.120;2023-06-14T02:42:05;97146.00;;;12.70
18219;BMP180;9234;49.344;11.120;2023-06-14T02:44:33;97140.00;;;12.70
18219;BMP180;9234;49.344;11.120;2023-06-14T02:47:03;97145.00;;;12.60
18219;BMP180;9234;49.344;11.120;2023-06-14T02:49:33;97135.00;;;12.60
18219;BMP180;9234;49.344;11.120;2023-06-14T02:52:01;97138.00;;;12.50
18219;BMP180;9234;49.344;11.120;2023-06-14T02:54:30;97138.00;;;12.50
18219;BMP180;9234;49.344;11.120;2023-06-14T02:56:58;97136.00;;;12.40
18219;BMP180;9234;49.344;11.120;2023-06-14T02:59:27;97135.00;;;12.40
18219;BMP180;9234;49.344;11.120;2023-06-14T03:01:56;97131.00;;;12.40
18219;BMP180;9234;49.344;11.120;2023-06-14T03:04:24;97141.00;;;12.30
18219;BMP180;9234;49.344;11.120;2023-06-14T03:06:55;97127.00;;;12.30
18219;BMP180;9234;49.344;11.120;2023-06-14T03:09:24;97140.00;;;12.20
18219;BMP180;9234;49.344;11.120;2023-06-14T03:11:52;97145.00;;;12.20
18219;BMP180;9234;49.344;11.120;2023-06-14T03:14:21;97139.00;;;12.20
18219;BMP180;9234;49.344;11.120;2023-06-14T03:16:49;97156.00;;;12.10
18219;BMP180;9234;49.344;11.120;2023-06-14T03:19:24;97153.00;;;12.10
18219;BMP180;9234;49.344;11.120;2023-06-14T03:21:55;97150.00;;;12.00
18219;BMP180;9234;49.344;11.120;2023-06-14T03:24:26;97156.00;;;12.00
18219;BMP180;9234;49.344;11.120;2023-06-14T03:26:57;97149.00;;;12.00
18219;BMP180;9234;49.344;11.120;2023-06-14T03:29:28;97162.00;;;11.90
18219;BMP180;9234;49.344;11.120;2023-06-14T03:31:59;97170.00;;;11.90
18219;BMP180;9234;49.344;11.120;2023-06-14T03:34:35;97168.00;;;11.90
18219;BMP180;9234;49.344;11.120;2023-06-14T03:37:08;97167.00;;;11.90
18219;BMP180;9234;49.344;11.120;2023-06-14T03:39:37;97167.00;;;11.90
18219;BMP180;9234;49.344;11.120;2023-06-14T03:42:16;97180.00;;;11.80
18219;BMP180;9234;49.344;11.120;2023-06-14T03:44:45;97186.00;;;11.80
18219;BMP180;9234;49.344;11.120;2023-06-14T03:47:14;97184.00;;;11.80
18219;BMP180;9234;49.344;11.120;2023-06-14T03:49:43;97191.00;;;11.80
18219;BMP180;9234;49.344;11.120;2023-06-14T03:52:13;97183.00;;;11.80
18219;BMP180;9234;49.344;11.120;2023-06-14T03:54:45;97200.00;;;11.80
18219;BMP180;9234;49.344;11.120;2023-06-14T03:57:17;97187.00;;;11.80
18219;BMP180;9234;49.344;11.120;2023-06-14T03:59:48;97187.00;;;11.90
18219;BMP180;9234;49.344;11.120;2023-06-14T04:02:18;97187.00;;;11.90
18219;BMP180;9234;49.344;11.120;2023-06-14T04:04:47;97200.00;;;11.90
18219;BMP180;9234;49.344;11.120;2023-06-14T04:07:16;97200.00;;;11.90
18219;BMP180;9234;49.344;11.120;2023-06-14T04:09:46;97189.00;;;12.00
18219;BMP180;9234;49.344;11.120;2023-06-14T04:12:15;97207.00;;;12.00
18219;BMP180;9234;49.344;11.120;2023-06-14T04:14:43;97194.00;;;12.00
18219;BMP180;9234;49.344;11.120;2023-06-14T04:17:12;97209.00;;;12.10
18219;BMP180;9234;49.344;11.120;2023-06-14T04:19:43;97203.00;;;12.10
18219;BMP180;9234;49.344;11.120;2023-06-14T04:22:12;97206.00;;;12.20
18219;BMP180;9234;49.344;11.120;2023-06-14T04:24:42;97195.00;;;12.20
18219;BMP180;9234;49.344;11.120;2023-06-14T04:27:16;97206.00;;;12.20
18219;BMP180;9234;49.344;11.120;2023-06-14T04:29:48;97201.00;;;12.20
18219;BMP180;9234;49.344;11.120;2023-06-14T04:32:20;97228.00;;;12.30
18219;BMP180;9234;49.344;11.120;2023-06-14T04:34:48;97219.00;;;12.30
18219;BMP180;9234;49.344;11.120;2023-06-14T04:37:21;97209.00;;;12.40
18219;BMP180;9234;49.344;11.120;2023-06-14T04:39:52;97213.00;;;12.40
18219;BMP180;9234;49.344;11.120;2023-06-14T04:42:23;97223.00;;;12.50
18219;BMP180;9234;49.344;11.120;2023-06-14T04:44:59;97230.00;;;12.60
18219;BMP180;9234;49.344;11.120;2023-06-14T04:47:27;97224.00;;;12.60
18219;BMP180;9234;49.344;11.120;2023-06-14T04:49:57;97222.00;;;12.70
18219;BMP180;9234;49.344;11.120;2023-06-14T04:52:29;97228.00;;;12.80
18219;BMP180;9234;49.344;11.120;2023-06-14T04:55:00;97222.00;;;12.80
18219;BMP180;9234;49.344;11.120;2023-06-14T04:57:28;97213.00;;;12.90
18219;BMP180;9234;49.344;11.120;2023-06-14T04:59:58;97230.00;;;13.00
18219;BMP180;9234;49.344;11.120;2023-06-14T05:02:28;97231.00;;;13.10
18219;BMP180;9234;49.344;11.120;2023-06-14T05:04:59;97219.00;;;13.20
18219;BMP180;9234;49.344;11.120;2023-06-14T05:07:29;97225.00;;;13.30
18219;BMP180;9234;49.344;11.120;2023-06-14T05:09:57;97228.00;;;13.40
18219;BMP180;9234;49.344;11.120;2023-06-14T05:12:29;97233.00;;;13.60
18219;BMP180;9234;49.344;11.120;2023-06-14T05:14:58;97226.00;;;13.70
18219;BMP180;9234;49.344;11.120;2023-06-14T05:17:27;97237.00;;;13.80
18219;BMP180;9234;49.344;11.120;2023-06-14T05:19:55;97242.00;;;13.90
18219;BMP180;9234;49.344;11.120;2023-06-14T05:22:23;97228.00;;;14.00
18219;BMP180;9234;49.344;11.120;2023-06-14T05:24:52;97248.00;;;14.10
18219;BMP180;9234;49.344;11.120;2023-06-14T05:27:20;97227.00;;;14.30
18219;BMP180;9234;49.344;11.120;2023-06-14T05:29:50;97229.00;;;14.40
18219;BMP180;9234;49.344;11.120;2023-06-14T05:32:22;97230.00;;;14.50
18219;BMP180;9234;49.344;11.120;2023-06-14T05:34:51;97237.00;;;14.70
18219;BMP180;9234;49.344;11.120;2023-06-14T05:37:19;97243.00;;;14.80
18219;BMP180;9234;49.344;11.120;2023-06-14T05:39:47;97246.00;;;14.90
18219;BMP180;9234;49.344;11.120;2023-06-14T05:42:16;97245.00;;;15.00
18219;BMP180;9234;49.344;11.120;2023-06-14T05:44:44;97247.00;;;15.10
18219;BMP180;9234;49.344;11.120;2023-06-14T05:47:14;97248.00;;;15.20
18219;BMP180;9234;49.344;11.120;2023-06-14T05:49:42;97256.00;;;15.30
18219;BMP180;9234;49.344;11.120;2023-06-14T05:52:10;97262.00;;;15.50
18219;BMP180;9234;49.344;11.120;2023-06-14T05:54:40;97260.00;;;15.60
18219;BMP180;9234;49.344;11.120;2023-06-14T05:57:08;97249.00;;;15.70
18219;BMP180;9234;49.344;11.120;2023-06-14T05:59:37;97269.00;;;15.80
18219;BMP180;9234;49.344;11.120;2023-06-14T06:02:06;97247.00;;;15.90
18219;BMP180;9234;49.344;11.120;2023-06-14T06:04:35;97264.00;;;16.10
18219;BMP180;9234;49.344;11.120;2023-06-14T06:07:04;97256.00;;;16.20
18219;BMP180;9234;49.344;11.120;2023-06-14T06:09:33;97263.00;;;16.30
18219;BMP180;9234;49.344;11.120;2023-06-14T06:12:01;97258.00;;;16.40
18219;BMP180;9234;49.344;11.120;2023-06-14T06:14:30;97255.00;;;16.50
18219;BMP180;9234;49.344;11.120;2023-06-14T06:16:58;97255.00;;;16.60
18219;BMP180;9234;49.344;11.120;2023-06-14T06:19:27;97265.00;;;16.80
18219;BMP180;9234;49.344;11.120;2023-06-14T06:21:56;97258.00;;;16.90
18219;BMP180;9234;49.344;11.120;2023-06-14T06:24:24;97273.00;;;17.00
18219;BMP180;9234;49.344;11.120;2023-06-14T06:26:53;97262.00;;;17.10
18219;BMP180;9234;49.344;11.120;2023-06-14T06:29:21;97272.00;;;17.20
18219;BMP180;9234;49.344;11.120;2023-06-14T06:31:49;97279.00;;;17.40
18219;BMP180;9234;49.344;11.120;2023-06-14T06:34:18;97274.00;;;17.50
18219;BMP180;9234;49.344;11.120;2023-06-14T06:36:46;97272.00;;;17.60
18219;BMP180;9234;49.344;11.120;2023-06-14T06:39:16;97281.00;;;17.70
18219;BMP180;9234;49.344;11.120;2023-06-14T06:41:44;97285.00;;;17.80
18219;BMP180;9234;49.344;11.120;2023-06-14T06:44:12;97288.00;;;17.90
18219;BMP180;9234;49.344;11.120;2023-06-14T06:46:41;97298.00;;;18.00
18219;BMP180;9234;49.344;11.120;2023-06-14T06:49:10;97287.00;;;18.20
18219;BMP180;9234;49.344;11.120;2023-06-14T06:51:42;97292.00;;;18.20
18219;BMP180;9234;49.344;11.120;2023-06-14T06:54:11;97283.00;;;18.30
18219;BMP180;9234;49.344;11.120;2023-06-14T06:56:40;97287.00;;;18.40
18219;BMP180;9234;49.344;11.120;2023-06-14T06:59:09;97285.00;;;18.50
18219;BMP180;9234;49.344;11.120;2023-06-14T07:01:37;97299.00;;;18.60
18219;BMP180;9234;49.344;11.120;2023-06-14T07:04:06;97294.00;;;18.80
18219;BMP180;9234;49.344;11.120;2023-06-14T07:06:34;97282.00;;;18.90
18219;BMP180;9234;49.344;11.120;2023-06-14T07:09:03;97292.00;;;19.00
18219;BMP180;9234;49.344;11.120;2023-06-14T07:11:35;97282.00;;;19.10
18219;BMP180;9234;49.344;11.120;2023-06-14T07:14:04;97293.00;;;19.30
18219;BMP180;9234;49.344;11.120;2023-06-14T07:16:33;97291.00;;;19.40
18219;BMP180;9234;49.344;11.120;2023-06-14T07:19:02;97286.00;;;19.50
18219;BMP180;9234;49.344;11.120;2023-06-14T07:21:30;97298.00;;;19.60
18219;BMP180;9234;49.344;11.120;2023-06-14T07:23:59;97289.00;;;19.70
18219;BMP180;9234;49.344;11.120;2023-06-14T07:26:28;97299.00;;;19.90
18219;BMP180;9234;49.344;11.120;2023-06-14T07:28:56;97290.00;;;20.00
18219;BMP180;9234;49.344;11.120;2023-06-14T07:31:26;97306.00;;;20.10
18219;BMP180;9234;49.344;11.120;2023-06-14T07:33:54;97295.00;;;20.30
18219;BMP180;9234;49.344;11.120;2023-06-14T07:36:23;97301.00;;;20.40
18219;BMP180;9234;49.344;11.120;2023-06-14T07:38:51;97299.00;;;20.60
18219;BMP180;9234;49.344;11.120;2023-06-14T07:41:21;97291.00;;;20.70
18219;BMP180;9234;49.344;11.120;2023-06-14T07:43:53;97303.00;;;20.80
18219;BMP180;9234;49.344;11.120;2023-06-14T07:46:22;97298.00;;;20.90
18219;BMP180;9234;49.344;11.120;2023-06-14T07:48:52;97307.00;;;21.00
18219;BMP180;9234;49.344;11.120;2023-06-14T07:51:21;97300.00;;;21.10
18219;BMP180;9234;49.344;11.120;2023-06-14T07:53:50;97304.00;;;21.30
18219;BMP180;9234;49.344;11.120;2023-06-14T07:56:18;97299.00;;;21.50
18219;BMP180;9234;49.344;11.120;2023-06-14T07:58:47;97304.00;;;21.60
18219;BMP180;9234;49.344;11.120;2023-06-14T08:01:15;97313.00;;;21.60
18219;BMP180;9234;49.344;11.120;2023-06-14T08:03:44;97307.00;;;21.70
18219;BMP180;9234;49.344;11.120;2023-06-14T08:06:15;97310.00;;;21.80
18219;BMP180;9234;49.344;11.120;2023-06-14T08:08:43;97314.00;;;21.80
18219;BMP180;9234;49.344;11.120;2023-06-14T08:11:12;97320.00;;;21.90
18219;BMP180;9234;49.344;11.120;2023-06-14T08:13:40;97307.00;;;22.10
18219;BMP180;9234;49.344;11.120;2023-06-14T08:16:08;97314.00;;;22.30
18219;BMP180;9234;49.344;11.120;2023-06-14T08:18:37;97321.00;;;22.50
18219;BMP180;9234;49.344;11.120;2023-06-14T08:21:06;97331.00;;;22.60
18219;BMP180;9234;49.344;11.120;2023-06-14T08:23:36;97316.00;;;22.70
18219;BMP180;9234;49.344;11.120;2023-06-14T08:26:05;97324.00;;;23.00
18219;BMP180;9234;49.344;11.120;2023-06-14T08:28:33;97310.00;;;23.40
18219;BMP180;9234;49.344;11.120;2023-06-14T08:31:02;97321.00;;;23.70
18219;BMP180;9234;49.344;11.120;2023-06-14T08:33:30;97319.00;;;23.80
18219;BMP180;9234;49.344;11.120;2023-06-14T08:36:01;97321.00;;;23.70
18219;BMP180;9234;49.344;11.120;2023-06-14T08:38:29;97324.00;;;23.70
18219;BMP180;9234;49.344;11.120;2023-06-14T08:41:02;97319.00;;;23.60
18219;BMP180;9234;49.344;11.120;2023-06-14T08:43:33;97321.00;;;23.50
18219;BMP180;9234;49.344;11.120;2023-06-14T08:46:04;97327.00;;;23.60
18219;BMP180;9234;49.344;11.120;2023-06-14T08:48:35;97329.00;;;23.90
18219;BMP180;9234;49.344;11.120;2023-06-14T08:51:05;97327.00;;;24.00
18219;BMP180;9234;49.344;11.120;2023-06-14T08:53:34;97319.00;;;23.90
18219;BMP180;9234;49.344;11.120;2023-06-14T08:56:10;97334.00;;;23.80
18219;BMP180;9234;49.344;11.120;2023-06-14T08:58:44;97326.00;;;23.70
18219;BMP180;9234;49.344;11.120;2023-06-14T09:01:13;97336.00;;;23.70
18219;BMP180;9234;49.344;11.120;2023-06-14T09:03:42;97335.00;;;23.60
18219;BMP180;9234;49.344;11.120;2023-06-14T09:06:10;97328.00;;;23.60
18219;BMP180;9234;49.344;11.120;2023-06-14T09:08:42;97324.00;;;23.60
18219;BMP180;9234;49.344;11.120;2023-06-14T09:11:14;97334.00;;;23.70
18219;BMP180;9234;49.344;11.120;2023-06-14T09:13:43;97330.00;;;23.80
18219;BMP180;9234;49.344;11.120;2023-06-14T09:16:11;97331.00;;;23.90
18219;BMP180;9234;49.344;11.120;2023-06-14T09:18:42;97337.00;;;24.00
18219;BMP180;9234;49.344;11.120;2023-06-14T09:21:12;97336.00;;;24.10
18219;BMP180;9234;49.344;11.120;2023-06-14T09:23:42;97332.00;;;24.10
18219;BMP180;9234;49.344;11.120;2023-06-14T09:26:14;97342.00;;;24.30
18219;BMP180;9234;49.344;11.120;2023-06-14T09:28:43;97337.00;;;24.40
18219;BMP180;9234;49.344;11.120;2023-06-14T09:31:14;97340.00;;;24.50
18219;BMP180;9234;49.344;11.120;2023-06-14T09:33:43;97340.00;;;24.50
18219;BMP180;9234;49.344;11.120;2023-06-14T09:36:16;97351.00;;;24.40
18219;BMP180;9234;49.344;11.120;2023-06-14T09:38:52;97336.00;;;24.20
18219;BMP180;9234;49.344;11.120;2023-06-14T09:41:31;97334.00;;;24.20
18219;BMP180;9234;49.344;11.120;2023-06-14T09:44:02;97345.00;;;24.10
18219;BMP180;9234;49.344;11.120;2023-06-14T09:46:36;97343.00;;;24.10
18219;BMP180;9234;49.344;11.120;2023-06-14T09:49:06;97343.00;;;24.20
18219;BMP180;9234;49.344;11.120;2023-06-14T09:51:37;97350.00;;;24.30
18219;BMP180;9234;49.344;11.120;2023-06-14T09:54:15;97341.00;;;24.20
18219;BMP180;9234;49.344;11.120;2023-06-14T09:56:47;97347.00;;;24.30
18219;BMP180;9234;49.344;11.120;2023-06-14T09:59:21;97349.00;;;24.30
18219;BMP180;9234;49.344;11.120;2023-06-14T10:01:58;97352.00;;;24.40
18219;BMP180;9234;49.344;11.120;2023-06-14T10:04:31;97340.00;;;24.40
18219;BMP180;9234;49.344;11.120;2023-06-14T10:07:03;97354.00;;;24.50
18219;BMP180;9234;49.344;11.120;2023-06-14T10:09:33;97338.00;;;24.60
18219;BMP180;9234;49.344;11.120;2023-06-14T10:12:05;97343.00;;;24.70
18219;BMP180;9234;49.344;11.120;2023-06-14T10:14:34;97347.00;;;24.70
18219;BMP180;9234;49.344;11.120;2023-06-14T10:17:08;97354.00;;;24.80
18219;BMP180;9234;49.344;11.120;2023-06-14T10:19:44;97343.00;;;24.90
18219;BMP180;9234;49.344;11.120;2023-06-14T10:22:27;97341.00;;;25.10
18219;BMP180;9234;49.344;11.120;2023-06-14T10:24:56;97353.00;;;25.30
18219;BMP180;9234;49.344;11.120;2023-06-14T10:27:26;97339.00;;;25.80
18219;BMP180;9234;49.344;11.120;2023-06-14T10:30:09;97354.00;;;26.40
18219;BMP180;9234;49.344;11.120;2023-06-14T10:33:04;97344.00;;;26.80
18219;BMP180;9234;49.344;11.120;2023-06-14T10:35:33;97335.00;;;27.30
18219;BMP180;9234;49.344;11.120;2023-06-14T10:38:08;97352.00;;;27.60
18219;BMP180;9234;49.344;11.120;2023-06-14T10:40:37;97348.00;;;27.70
18219;BMP180;9234;49.344;11.120;2023-06-14T10:43:23;97351.00;;;27.50
18219;BMP180;9234;49.344;11.120;2023-06-14T10:46:15;97333.00;;;27.40
18219;BMP180;9234;49.344;11.120;2023-06-14T10:48:44;97342.00;;;27.40
18219;BMP180;9234;49.344;11.120;2023-06-14T10:51:18;97351.00;;;27.30
18219;BMP180;9234;49.344;11.120;2023-06-14T10:53:48;97338.00;;;27.20
18219;BMP180;9234;49.344;11.120;2023-06-14T10:56:28;97353.00;;;27.20
18219;BMP180;9234;49.344;11.120;2023-06-14T10:58:58;97345.00;;;27.20
18219;BMP180;9234;49.344;11.120;2023-06-14T11:01:36;97346.00;;;27.20
18219;BMP180;9234;49.344;11.120;2023-06-14T11:04:08;97337.00;;;27.60
18219;BMP180;9234;49.344;11.120;2023-06-14T11:06:49;97333.00;;;28.20
18219;BMP180;9234;49.344;11.120;2023-06-14T11:09:58;97347.00;;;28.60
18219;BMP180;9234;49.344;11.120;2023-06-14T11:12:33;97337.00;;;28.60
18219;BMP180;9234;49.344;11.120;2023-06-14T11:15:06;97335.00;;;28.70
18219;BMP180;9234;49.344;11.120;2023-06-14T11:17:34;97341.00;;;28.70
18219;BMP180;9234;49.344;11.120;2023-06-14T11:20:09;97339.00;;;28.60
18219;BMP180;9234;49.344;11.120;2023-06-14T11:22:41;97329.00;;;28.60
18219;BMP180;9234;49.344;11.120;2023-06-14T11:25:12;97336.00;;;28.60
18219;BMP180;9234;49.344;11.120;2023-06-14T11:27:42;97334.00;;;28.60
18219;BMP180;9234;49.344;11.120;2023-06-14T11:30:13;97333.00;;;28.70
18219;BMP180;9234;49.344;11.120;2023-06-14T11:32:45;97330.00;;;28.90
18219;BMP180;9234;49.344;11.120;2023-06-14T11:35:14;97333.00;;;28.90
18219;BMP180;9234;49.344;11.120;2023-06-14T11:37:44;97337.00;;;28.80
18219;BMP180;9234;49.344;11.120;2023-06-14T11:40:12;97344.00;;;28.80
18219;BMP180;9234;49.344;11.120;2023-06-14T11:42:41;97338.00;;;28.90
18219;BMP180;9234;49.344;11.120;2023-06-14T11:45:12;97341.00;;;28.90
18219;BMP180;9234;49.344;11.120;2023-06-14T11:47:40;97331.00;;;29.00
18219;BMP180;9234;49.344;11.120;2023-06-14T11:50:10;97335.00;;;29.20
18219;BMP180;9234;49.344;11.120;2023-06-14T11:52:38;97340.00;;;29.50
18219;BMP180;9234;49.344;11.120;2023-06-14T11:55:08;97335.00;;;30.00
18219;BMP180;9234;49.344;11.120;2023-06-14T11:57:36;97334.00;;;30.30
18219;BMP180;9234;49.344;11.120;2023-06-14T12:00:08;97334.00;;;30.50
18219;BMP180;9234;49.344;11.120;2023-06-14T12:02:40;97336.00;;;30.50
18219;BMP180;9234;49.344;11.120;2023-06-14T12:05:09;97331.00;;;30.50
18219;BMP180;9234;49.344;11.120;2023-06-14T12:07:38;97335.00;;;30.50
18219;BMP180;9234;49.344;11.120;2023-06-14T12:10:09;97327.00;;;30.40
18219;BMP180;9234;49.344;11.120;2023-06-14T12:12:39;97335.00;;;30.20
18219;BMP180;9234;49.344;11.120;2023-06-14T12:15:10;97337.00;;;29.90
18219;BMP180;9234;49.344;11.120;2023-06-14T12:17:42;97325.00;;;29.70
18219;BMP180;9234;49.344;11.120;2023-06-14T12:20:13;97319.00;;;29.90
18219;BMP180;9234;49.344;11.120;2023-06-14T12:23:03;97326.00;;;30.10
18219;BMP180;9234;49.344;11.120;2023-06-14T12:25:58;97333.00;;;30.10
18219;BMP180;9234;49.344;11.120;2023-06-14T12:28:31;97327.00;;;30.10
18219;BMP180;9234;49.344;11.120;2023-06-14T12:30:59;97330.00;;;30.20
18219;BMP180;9234;49.344;11.120;2023-06-14T12:33:30;97320.00;;;30.30
18219;BMP180;9234;49.344;11.120;2023-06-14T12:35:58;97326.00;;;30.40
18219;BMP180;9234;49.344;11.120;2023-06-14T12:38:27;97324.00;;;30.50
18219;BMP180;9234;49.344;11.120;2023-06-14T12:40:55;97319.00;;;30.50
18219;BMP180;9234;49.344;11.120;2023-06-14T12:43:24;97332.00;;;30.60
18219;BMP180;9234;49.344;11.120;2023-06-14T12:45:53;97320.00;;;30.70
18219;BMP180;9234;49.344;11.120;2023-06-14T12:48:21;97325.00;;;30.70
18219;BMP180;9234;49.344;11.120;2023-06-14T12:50:53;97331.00;;;30.80
18219;BMP180;9234;49.344;11.120;2023-06-14T12:53:22;97324.00;;;30.80
18219;BMP180;9234;49.344;11.120;2023-06-14T12:55:50;97330.00;;;30.90
18219;BMP180;9234;49.344;11.120;2023-06-14T12:58:19;97331.00;;;30.90
18219;BMP180;9234;49.344;11.120;2023-06-14T13:00:47;97340.00;;;30.90
18219;BMP180;9234;49.344;11.120;2023-06-14T13:03:16;97334.00;;;31.00
18219;BMP180;9234;49.344;11.120;2023-06-14T13:05:44;97335.00;;;31.10
18219;BMP180;9234;49.344;11.120;2023-06-14T13:08:14;97335.00;;;31.50
18219;BMP180;9234;49.344;11.120;2023-06-14T13:10:42;97329.00;;;32.10
18219;BMP180;9234;49.344;11.120;2023-06-14T13:13:11;97331.00;;;32.40
18219;BMP180;9234;49.344;11.120;2023-06-14T13:15:40;97342.00;;;33.00
18219;BMP180;9234;49.344;11.120;2023-06-14T13:18:09;97334.00;;;33.70
18219;BMP180;9234;49.344;11.120;2023-06-14T13:20:39;97330.00;;;33.70
18219;BMP180;9234;49.344;11.120;2023-06-14T13:23:08;97322.00;;;33.60
18219;BMP180;9234;49.344;11.120;2023-06-14T13:25:39;97328.00;;;33.30
18219;BMP180;9234;49.344;11.120;2023-06-14T13:28:08;97332.00;;;32.90
18219;BMP180;9234;49.344;11.120;2023-06-14T13:30:37;97331.00;;;32.40
18219;BMP180;9234;49.344;11.120;2023-06-14T13:33:05;97330.00;;;32.30
18219;BMP180;9234;49.344;11.120;2023-06-14T13:35:34;97325.00;;;32.30
18219;BMP180;9234;49.344;11.120;2023-06-14T13:38:02;97327.00;;;32.70
18219;BMP180;9234;49.344;11.120;2023-06-14T13:40:31;97317.00;;;33.90
18219;BMP180;9234;49.344;11.120;2023-06-14T13:43:02;97325.00;;;35.40
18219;BMP180;9234;49.344;11.120;2023-06-14T13:45:31;97333.00;;;36.80
18219;BMP180;9234;49.344;11.120;2023-06-14T13:47:59;97322.00;;;38.10
18219;BMP180;9234;49.344;11.120;2023-06-14T13:50:27;97323.00;;;38.10
18219;BMP180;9234;49.344;11.120;2023-06-14T13:52:56;97320.00;;;36.90
18219;BMP180;9234;49.344;11.120;2023-06-14T13:55:24;97322.00;;;35.60
18219;BMP180;9234;49.344;11.120;2023-06-14T13:57:52;97331.00;;;34.40
18219;BMP180;9234;49.344;11.120;2023-06-14T14:00:22;97327.00;;;33.30
18219;BMP180;9234;49.344;11.120;2023-06-14T14:02:51;97323.00;;;32.40
18219;BMP180;9234;49.344;11.120;2023-06-14T14:05:19;97317.00;;;31.70
18219;BMP180;9234;49.344;11.120;2023-06-14T14:07:48;97325.00;;;31.00
18219;BMP180;9234;49.344;11.120;2023-06-14T14:10:16;97317.00;;;30.40
18219;BMP180;9234;49.344;11.120;2023-06-14T14:12:47;97324.00;;;29.90
18219;BMP180;9234;49.344;11.120;2023-06-14T14:15:16;97324.00;;;29.50
18219;BMP180;9234;49.344;11.120;2023-06-14T14:17:45;97321.00;;;29.10
18219;BMP180;9234;49.344;11.120;2023-06-14T14:20:14;97309.00;;;28.80
18219;BMP180;9234;49.344;11.120;2023-06-14T14:22:44;97309.00;;;28.50
18219;BMP180;9234;49.344;11.120;2023-06-14T14:25:12;97310.00;;;28.30
18219;BMP180;9234;49.344;11.120;2023-06-14T14:27:44;97308.00;;;28.20